Overview Statistics Trail Chart Weather Telemetry Raw packets
 

This is the latest recevied weather packets stored in our database for station/object KJ5FA-10. If no packets are shown the sender has not sent any weather packets the latest 10 day(s).

<< 18 19 20 21 22 23 24 >>
Time Temp. Humidity Pressure Rain* Wind** Luminosity Snow
1788001783 19.44° C 94% 1020.5 hPa 0 mm - - -
1788000883 19.44° C 94% 1020.3 hPa 0 mm - - -
1787999983 20° C 94% 1020.4 hPa 0 mm - - -
1787999083 20° C 94% 1020.3 hPa 0 mm - - -
1787997283 20° C 93% 1020.3 hPa 0 mm - - -
1787995483 20° C 93% 1019.9 hPa 0 mm - - -
1787994583 20.56° C 93% 1019.9 hPa 0 mm - - -
1787993683 20.56° C 92% 1020 hPa 0 mm - - -
1787992783 20.56° C 92% 1019.8 hPa 0 mm - - -
1787991884 20.56° C 91% 1019.7 hPa 0 mm - - -
1787990983 21.11° C 90% 1019.8 hPa 0 mm - - -
1787990083 21.11° C 89% 1019.7 hPa 0 mm - - -
1787987803 21.67° C 85% 1019.7 hPa 0 mm - - -
1787987564 21.67° C 85% 1019.7 hPa 0 mm - - -
1787987443 21.67° C 84% 1019.6 hPa 0 mm - - -
1787986702 22.22° C 82% 1019.9 hPa 0 mm - - -
1787985801 22.22° C 81% 1019.8 hPa 0 mm - - -
1787984001 23.33° C 78% 1019.8 hPa 0 mm - - -
1787983101 22.78° C 79% 1019.9 hPa 0 mm - - -
1787982201 23.33° C 77% 1019.9 hPa 0 mm - - -
1787981301 23.89° C 78% 1019.6 hPa 0 mm - - -
1787980402 23.89° C 78% 1019.6 hPa 0 mm - - -
1787979501 23.89° C 77% 1019.5 hPa 0 mm - - -
1787978601 23.89° C 79% 1019.5 hPa 0 mm - - -
1787977701 24.44° C 76% 1019.7 hPa 0 mm - - -

* Rain latest hour (hover to see other rain measurements)
** Current wind speed in m/s (hover to see current wind gust speed)